Time;durP1;ratioP1;P1;durP2;ratioP2;P2;SDS_P1;SDS_P2;PMS_P1;PMS_P2;Temp;Humidity;BMP_temperature;BMP_pressure;BME280_temperature;BME280_humidity;BME280_pressure;Samples;Min_cycle;Max_cycle;Signal;HPM_P1;HPM_P2
2023/01/24 00:00:33;;;;;;;;;;;;;;;;;;5075060;28;19919;-58
2023/01/24 00:02:58;;;;;;;;;;;;;;;;;;5075591;28;19924;-58
2023/01/24 00:05:24;;;;;;;;;;;;;;;;;;5073627;28;20199;-58
2023/01/24 00:07:50;;;;;;;;;;;;;;;;;;5074708;28;19986;-59
2023/01/24 00:10:16;;;;;;;;;;;;;;;;;;5075817;28;19985;-60
2023/01/24 00:12:42;;;;;;;;;;;;;;;;;;5076837;28;19963;-59
2023/01/24 00:15:08;;;;;;;;;;;;;;;;;;5077728;28;20003;-58
2023/01/24 00:17:34;;;;;;;;;;;;;;;;;;5085009;28;20287;-58
2023/01/24 00:20:00;;;;;;;;;;;;;;;;;;5075402;28;19930;-58
2023/01/24 00:22:26;;;;;;;;;;;;;;;;;;5074575;28;19928;-60
2023/01/24 00:24:51;;;;;;;;;;;;;;;;;;5078291;28;19943;-58
2023/01/24 00:27:18;;;;;;;;;;;;;;;;;;5080072;28;19931;-58
2023/01/24 00:29:43;;;;;;;;;;;;;;;;;;5077673;28;19934;-60
2023/01/24 00:32:09;;;;;;;;;;;;;;;;;;5077601;28;19924;-58
2023/01/24 00:34:35;;;;;;;;;;;;;;;;;;5082671;28;19924;-60
2023/01/24 00:37:01;;;;;;;;;;;;;;;;;;5076703;28;20078;-58
2023/01/24 00:39:27;;;;;;;;;;;;;;;;;;5077181;28;19928;-60
2023/01/24 00:41:53;;;;;;;;;;;;;;;;;;5074292;28;19920;-60
2023/01/24 00:44:19;;;;;;;;;;;;;;;;;;5075528;28;19920;-60
2023/01/24 00:46:45;;;;;;;;;;;;;;;;;;5078658;28;19924;-58
2023/01/24 00:49:11;;;;;;;;;;;;;;;;;;5079035;28;19946;-61
2023/01/24 00:51:37;;;;;;;;;;;;;;;;;;5076529;28;20105;-60
2023/01/24 00:54:02;;;;;;;;;;;;;;;;;;5076559;28;19924;-59
2023/01/24 00:56:28;;;;;;;;;;;;;;;;;;5073256;28;20206;-58
2023/01/24 00:58:54;;;;;;;;;;;;;;;;;;5081453;28;20422;-58
2023/01/24 01:01:20;;;;;;;;;;;;;;;;;;5074722;28;20280;-59
2023/01/24 01:03:46;;;;;;;;;;;;;;;;;;5079001;28;19923;-58
2023/01/24 01:06:12;;;;;;;;;;;;;;;;;;5075301;28;20261;-58
2023/01/24 01:08:38;;;;;;;;;;;;;;;;;;5076973;28;20395;-60
2023/01/24 01:11:04;;;;;;;;;;;;;;;;;;5076414;28;20088;-58
2023/01/24 01:13:30;;;;;;;;;;;;;;;;;;5074009;28;19923;-58
2023/01/24 01:15:55;;;;;;;;;;;;;;;;;;5071754;28;20439;-60
2023/01/24 01:18:21;;;;;;;;;;;;;;;;;;5073382;28;19920;-58
2023/01/24 01:20:47;;;;;;;;;;;;;;;;;;5073300;28;20111;-58
2023/01/24 01:23:13;;;;;;;;;;;;;;;;;;5073258;28;19924;-58
2023/01/24 01:25:39;;;;;;;;;;;;;;;;;;5078183;28;20243;-58
2023/01/24 01:28:05;;;;;;;;;;;;;;;;;;5077801;28;19954;-58
2023/01/24 01:30:31;;;;;;;;;;;;;;;;;;5074391;28;20122;-60
2023/01/24 01:32:57;;;;;;;;;;;;;;;;;;5073464;28;20388;-59
2023/01/24 01:35:23;;;;;;;;;;;;;;;;;;5075536;28;20129;-60
2023/01/24 01:37:49;;;;;;;;;;;;;;;;;;5072665;28;19927;-58
2023/01/24 01:40:15;;;;;;;;;;;;;;;;;;5078993;28;19924;-60
2023/01/24 01:42:40;;;;;;;;;;;;;;;;;;5077116;28;20291;-58
2023/01/24 01:45:06;;;;;;;;;;;;;;;;;;5078860;28;20022;-58
2023/01/24 01:47:32;;;;;;;;;;;;;;;;;;5077072;28;19920;-58
2023/01/24 01:49:58;;;;;;;;;;;;;;;;;;5075096;28;19936;-59
2023/01/24 01:52:24;;;;;;;;;;;;;;;;;;5074617;28;20288;-58
2023/01/24 01:54:50;;;;;;;;;;;;;;;;;;5076949;28;19939;-60
2023/01/24 01:57:16;;;;;;;;;;;;;;;;;;5072856;28;19924;-60
2023/01/24 01:59:42;;;;;;;;;;;;;;;;;;5076778;28;20380;-58
2023/01/24 02:02:08;;;;;;;;;;;;;;;;;;5077850;28;19921;-57
2023/01/24 02:04:34;;;;;;;;;;;;;;;;;;5073828;28;19920;-58
2023/01/24 02:07:00;;;;;;;;;;;;;;;;;;5073948;28;20005;-58
2023/01/24 02:09:26;;;;;;;;;;;;;;;;;;5079431;28;19939;-60
2023/01/24 02:11:51;;;;;;;;;;;;;;;;;;5079601;28;19981;-58
2023/01/24 02:17:02;;;;;;;;;;;;;;;;;;5074037;28;19920;-60
2023/01/24 02:19:28;;;;;;;;;;;;;;;;;;5084774;28;19933;-58
2023/01/24 02:21:54;;;;;;;;;;;;;;;;;;5080974;28;20418;-58
2023/01/24 02:24:20;;;;;;;;;;;;;;;;;;5074703;28;19932;-58
2023/01/24 02:26:46;;;;;;;;;;;;;;;;;;5077991;28;19920;-58
2023/01/24 02:29:11;;;;;;;;;;;;;;;;;;5081296;28;20276;-58
2023/01/24 02:31:37;;;;;;;;;;;;;;;;;;5081499;28;19946;-59
2023/01/24 02:34:03;;;;;;;;;;;;;;;;;;5077606;28;19982;-58
2023/01/24 02:36:29;;;;;;;;;;;;;;;;;;5079658;28;20029;-58
2023/01/24 02:38:55;;;;;;;;;;;;;;;;;;5079204;28;20402;-59
2023/01/24 02:41:21;;;;;;;;;;;;;;;;;;5080992;28;19927;-57
2023/01/24 02:43:47;;;;;;;;;;;;;;;;;;5079648;28;19927;-58
2023/01/24 02:46:13;;;;;;;;;;;;;;;;;;5077624;28;20368;-58
2023/01/24 02:48:39;;;;;;;;;;;;;;;;;;5082664;28;19927;-59
2023/01/24 02:53:49;;;;;;;;;;;;;;;;;;5075749;28;19924;-59
2023/01/24 02:59:00;;;;;;;;;;;;;;;;;;5074185;28;19924;-58
2023/01/24 03:01:25;;;;;;;;;;;;;;;;;;5081155;28;19939;-60
2023/01/24 03:03:52;;;;;;;;;;;;;;;;;;5079147;28;20334;-58
2023/01/24 03:06:17;;;;;;;;;;;;;;;;;;5076940;28;19928;-60
2023/01/24 03:08:43;;;;;;;;;;;;;;;;;;5079450;28;20357;-58
2023/01/24 03:11:09;;;;;;;;;;;;;;;;;;5079307;28;19921;-60
2023/01/24 03:35:31;;;;;;;;;;;;;;;;;;5077911;28;19920;-60
2023/01/24 03:40:41;;;;;;;;;;;;;;;;;;5076696;28;19931;-57
2023/01/24 03:43:07;;;;;;;;;;;;;;;;;;5073180;28;19924;-58
2023/01/24 03:45:33;;;;;;;;;;;;;;;;;;5075352;28;19920;-58
2023/01/24 03:47:59;;;;;;;;;;;;;;;;;;5072871;28;20098;-58
2023/01/24 03:53:10;;;;;;;;;;;;;;;;;;5072721;28;20427;-59
2023/01/24 03:55:36;;;;;;;;;;;;;;;;;;5075456;28;20006;-61
2023/01/24 03:58:02;;;;;;;;;;;;;;;;;;5072069;28;20074;-59
2023/01/24 04:00:27;;;;;;;;;;;;;;;;;;5074385;28;19924;-58
2023/01/24 04:02:53;;;;;;;;;;;;;;;;;;5072388;28;19927;-59
2023/01/24 04:05:20;;;;;;;;;;;;;;;;;;5072280;28;19920;-58
2023/01/24 04:07:46;;;;;;;;;;;;;;;;;;5073931;28;19921;-58
2023/01/24 04:10:13;;;;;;;;;;;;;;;;;;5076720;28;20388;-58
2023/01/24 04:12:39;;;;;;;;;;;;;;;;;;5073911;28;19920;-58
2023/01/24 04:15:05;;;;;;;;;;;;;;;;;;5075736;28;19925;-58
2023/01/24 04:17:31;;;;;;;;;;;;;;;;;;5080635;28;19920;-58
2023/01/24 04:19:56;;;;;;;;;;;;;;;;;;5075979;28;19959;-58
2023/01/24 04:22:22;;;;;;;;;;;;;;;;;;5078895;28;20360;-58
2023/01/24 04:24:48;;;;;;;;;;;;;;;;;;5072890;28;19924;-58
2023/01/24 04:27:14;;;;;;;;;;;;;;;;;;5072157;28;19920;-58
2023/01/24 04:29:40;;;;;;;;;;;;;;;;;;5074198;28;19944;-58
2023/01/24 04:32:06;;;;;;;;;;;;;;;;;;5077721;28;19943;-59
2023/01/24 04:34:32;;;;;;;;;;;;;;;;;;5079488;28;19920;-58
2023/01/24 04:36:58;;;;;;;;;;;;;;;;;;5075607;28;19986;-58
2023/01/24 04:39:24;;;;;;;;;;;;;;;;;;5073146;28;19965;-58
2023/01/24 04:41:50;;;;;;;;;;;;;;;;;;5072706;28;19927;-58
2023/01/24 04:44:16;;;;;;;;;;;;;;;;;;5072030;28;19966;-58
2023/01/24 04:46:41;;;;;;;;;;;;;;;;;;5073765;28;19923;-59
2023/01/24 04:49:07;;;;;;;;;;;;;;;;;;5072763;28;20285;-58
2023/01/24 04:51:33;;;;;;;;;;;;;;;;;;5075052;28;19920;-58
2023/01/24 04:53:59;;;;;;;;;;;;;;;;;;5070901;28;19936;-60
2023/01/24 04:56:25;;;;;;;;;;;;;;;;;;5075239;28;20402;-58
2023/01/24 04:58:51;;;;;;;;;;;;;;;;;;5073757;28;19927;-57
2023/01/24 05:01:17;;;;;;;;;;;;;;;;;;5075120;28;19932;-57
2023/01/24 05:03:43;;;;;;;;;;;;;;;;;;5078619;28;19928;-57
2023/01/24 05:06:09;;;;;;;;;;;;;;;;;;5076897;28;19924;-57
2023/01/24 05:08:35;;;;;;;;;;;;;;;;;;5075314;28;19931;-58
2023/01/24 05:11:01;;;;;;;;;;;;;;;;;;5078839;28;20019;-57
2023/01/24 05:13:27;;;;;;;;;;;;;;;;;;5075080;28;19998;-59
2023/01/24 05:15:53;;;;;;;;;;;;;;;;;;5072117;28;19920;-57
2023/01/24 05:18:19;;;;;;;;;;;;;;;;;;5076353;28;19951;-57
2023/01/24 05:20:45;;;;;;;;;;;;;;;;;;5082653;28;20011;-58
2023/01/24 05:23:11;;;;;;;;;;;;;;;;;;5080197;28;19927;-58
2023/01/24 05:25:37;;;;;;;;;;;;;;;;;;5080405;28;19924;-57
2023/01/24 05:28:03;;;;;;;;;;;;;;;;;;5076086;28;19920;-57
2023/01/24 05:30:29;;;;;;;;;;;;;;;;;;5072177;28;19981;-57
2023/01/24 05:32:55;;;;;;;;;;;;;;;;;;5072390;28;20327;-57
2023/01/24 05:35:21;;;;;;;;;;;;;;;;;;5073207;28;19931;-58
2023/01/24 05:37:47;;;;;;;;;;;;;;;;;;5076082;28;19924;-60
2023/01/24 05:40:13;;;;;;;;;;;;;;;;;;5068850;28;19920;-58
2023/01/24 05:42:38;;;;;;;;;;;;;;;;;;5080988;28;19927;-56
2023/01/24 05:45:05;;;;;;;;;;;;;;;;;;5079264;28;19954;-58
2023/01/24 05:47:31;;;;;;;;;;;;;;;;;;5081581;28;19920;-59
2023/01/24 05:49:57;;;;;;;;;;;;;;;;;;5081719;28;19977;-57
2023/01/24 05:52:22;;;;;;;;;;;;;;;;;;5079996;28;19973;-57
2023/01/24 05:54:48;;;;;;;;;;;;;;;;;;5080911;28;19920;-59
2023/01/24 05:57:14;;;;;;;;;;;;;;;;;;5080871;28;20277;-59
2023/01/24 05:59:40;;;;;;;;;;;;;;;;;;5083737;28;19924;-58
2023/01/24 06:02:06;;;;;;;;;;;;;;;;;;5079852;28;19920;-57
2023/01/24 06:04:32;;;;;;;;;;;;;;;;;;5084089;28;19924;-57
2023/01/24 06:06:58;;;;;;;;;;;;;;;;;;5075709;28;19936;-59
2023/01/24 06:09:24;;;;;;;;;;;;;;;;;;5076885;28;20442;-57
2023/01/24 06:11:50;;;;;;;;;;;;;;;;;;5076395;28;19924;-59
2023/01/24 06:14:16;;;;;;;;;;;;;;;;;;5075507;28;19942;-57
2023/01/24 06:16:42;;;;;;;;;;;;;;;;;;5082641;28;19924;-59
2023/01/24 06:19:09;;;;;;;;;;;;;;;;;;5081090;28;19959;-57
2023/01/24 06:21:35;;;;;;;;;;;;;;;;;;5085840;28;19964;-59
2023/01/24 06:24:00;;;;;;;;;;;;;;;;;;5083310;28;19919;-57
2023/01/24 06:26:26;;;;;;;;;;;;;;;;;;5082855;28;19977;-58
2023/01/24 06:28:52;;;;;;;;;;;;;;;;;;5086588;28;20025;-59
2023/01/24 06:31:18;;;;;;;;;;;;;;;;;;5081480;28;19924;-57
2023/01/24 06:33:44;;;;;;;;;;;;;;;;;;5078495;28;19931;-58
2023/01/24 06:36:10;;;;;;;;;;;;;;;;;;5071165;28;19924;-58
2023/01/24 06:38:36;;;;;;;;;;;;;;;;;;5077733;28;19931;-58
2023/01/24 06:41:02;;;;;;;;;;;;;;;;;;5085570;28;19920;-56
2023/01/24 06:43:28;;;;;;;;;;;;;;;;;;5078890;28;19924;-57
2023/01/24 06:45:54;;;;;;;;;;;;;;;;;;5081676;28;19971;-59
2023/01/24 06:48:20;;;;;;;;;;;;;;;;;;5077577;28;20003;-59
2023/01/24 06:50:46;;;;;;;;;;;;;;;;;;5082419;28;20367;-58
2023/01/24 06:53:14;;;;;;;;;;;;;;;;;;5078257;28;19921;-57
2023/01/24 06:55:39;;;;;;;;;;;;;;;;;;5081151;28;20165;-57
2023/01/24 06:58:05;;;;;;;;;;;;;;;;;;5081322;28;20370;-57
2023/01/24 07:00:31;;;;;;;;;;;;;;;;;;5074336;28;19943;-58
2023/01/24 07:02:57;;;;;;;;;;;;;;;;;;5082681;28;19920;-59
2023/01/24 07:05:23;;;;;;;;;;;;;;;;;;5079611;28;20330;-60
2023/01/24 07:07:49;;;;;;;;;;;;;;;;;;5079635;28;19921;-58
2023/01/24 07:10:16;;;;;;;;;;;;;;;;;;5084467;28;20394;-60
2023/01/24 07:12:42;;;;;;;;;;;;;;;;;;5079993;28;19928;-58
2023/01/24 07:15:08;;;;;;;;;;;;;;;;;;5079867;28;19927;-57
2023/01/24 07:17:34;;;;;;;;;;;;;;;;;;5079012;28;19924;-57
2023/01/24 07:20:00;;;;;;;;;;;;;;;;;;5076932;28;19964;-60
2023/01/24 07:22:26;;;;;;;;;;;;;;;;;;5079579;28;20058;-57
2023/01/24 07:24:51;;;;;;;;;;;;;;;;;;5077232;28;19967;-59
2023/01/24 07:27:17;;;;;;;;;;;;;;;;;;5076565;28;20559;-58
2023/01/24 07:29:43;;;;;;;;;;;;;;;;;;5082143;28;19924;-60
2023/01/24 07:32:09;;;;;;;;;;;;;;;;;;5078478;28;19921;-56
2023/01/24 07:34:35;;;;;;;;;;;;;;;;;;5082552;28;19920;-57
2023/01/24 07:37:01;;;;;;;;;;;;;;;;;;5085729;28;19919;-57
2023/01/24 07:39:27;;;;;;;;;;;;;;;;;;5077827;28;20732;-60
2023/01/24 07:41:53;;;;;;;;;;;;;;;;;;5079522;28;19930;-57
2023/01/24 07:44:19;;;;;;;;;;;;;;;;;;5084866;28;20003;-58
2023/01/24 07:46:45;;;;;;;;;;;;;;;;;;5083453;28;20368;-58
2023/01/24 07:49:11;;;;;;;;;;;;;;;;;;5084306;28;19935;-59
2023/01/24 07:51:37;;;;;;;;;;;;;;;;;;5078795;28;19931;-57
2023/01/24 07:54:03;;;;;;;;;;;;;;;;;;5078335;28;20291;-58
2023/01/24 07:56:29;;;;;;;;;;;;;;;;;;5078950;28;20561;-58
2023/01/24 07:58:55;;;;;;;;;;;;;;;;;;5082892;28;19927;-59
2023/01/24 08:01:21;;;;;;;;;;;;;;;;;;5075350;28;19931;-57
2023/01/24 08:03:47;;;;;;;;;;;;;;;;;;5083190;28;19924;-59
2023/01/24 08:06:13;;;;;;;;;;;;;;;;;;5079326;28;19926;-57
2023/01/24 08:08:39;;;;;;;;;;;;;;;;;;5081427;28;19920;-57
2023/01/24 08:11:05;;;;;;;;;;;;;;;;;;5083211;28;19920;-58
2023/01/24 08:13:31;;;;;;;;;;;;;;;;;;5078687;28;20315;-58
2023/01/24 08:15:56;;;;;;;;;;;;;;;;;;5077921;28;19919;-58
2023/01/24 08:18:22;;;;;;;;;;;;;;;;;;5084000;28;19928;-58
2023/01/24 08:20:49;;;;;;;;;;;;;;;;;;5079525;28;20246;-59
2023/01/24 08:23:15;;;;;;;;;;;;;;;;;;5077790;28;20019;-57
2023/01/24 08:25:41;;;;;;;;;;;;;;;;;;5079196;28;20427;-57
2023/01/24 08:28:07;;;;;;;;;;;;;;;;;;5079749;28;19931;-59
2023/01/24 08:30:33;;;;;;;;;;;;;;;;;;5081153;28;20391;-57
2023/01/24 08:32:58;;;;;;;;;;;;;;;;;;5079600;28;19923;-57
2023/01/24 08:35:24;;;;;;;;;;;;;;;;;;5080284;28;19920;-57
2023/01/24 08:37:50;;;;;;;;;;;;;;;;;;5079378;28;19929;-57
2023/01/24 08:40:16;;;;;;;;;;;;;;;;;;5080083;28;20249;-59
2023/01/24 08:42:42;;;;;;;;;;;;;;;;;;5078650;28;19924;-57
2023/01/24 08:45:08;;;;;;;;;;;;;;;;;;5072954;28;19924;-56
2023/01/24 08:47:34;;;;;;;;;;;;;;;;;;5085617;28;19959;-59
2023/01/24 08:50:00;;;;;;;;;;;;;;;;;;5078783;28;20418;-57
2023/01/24 08:52:26;;;;;;;;;;;;;;;;;;5074959;28;20444;-57
2023/01/24 08:54:52;;;;;;;;;;;;;;;;;;5078375;28;19920;-57
2023/01/24 08:57:18;;;;;;;;;;;;;;;;;;5075305;28;19924;-57
2023/01/24 08:59:44;;;;;;;;;;;;;;;;;;5075340;28;19926;-59
2023/01/24 09:02:09;;;;;;;;;;;;;;;;;;5081129;28;20203;-53
2023/01/24 09:04:35;;;;;;;;;;;;;;;;;;5077489;28;19921;-54
2023/01/24 09:07:01;;;;;;;;;;;;;;;;;;5081930;28;19920;-60
2023/01/24 09:09:27;;;;;;;;;;;;;;;;;;5070713;28;20098;-57
2023/01/24 09:11:53;;;;;;;;;;;;;;;;;;5070624;28;20322;-57
2023/01/24 09:14:19;;;;;;;;;;;;;;;;;;5071759;28;19920;-57
2023/01/24 09:16:45;;;;;;;;;;;;;;;;;;5082588;28;19975;-58
2023/01/24 09:19:11;;;;;;;;;;;;;;;;;;5086609;28;20374;-57
2023/01/24 09:21:37;;;;;;;;;;;;;;;;;;5082601;28;20166;-57
2023/01/24 09:24:03;;;;;;;;;;;;;;;;;;5070247;28;19999;-58
2023/01/24 09:26:29;;;;;;;;;;;;;;;;;;5072354;28;20015;-59
2023/01/24 09:28:55;;;;;;;;;;;;;;;;;;5067663;28;19920;-57
2023/01/24 09:31:21;;;;;;;;;;;;;;;;;;5084067;28;19931;-57
2023/01/24 09:33:47;;;;;;;;;;;;;;;;;;5084658;28;19924;-57
2023/01/24 09:36:13;;;;;;;;;;;;;;;;;;5073328;28;20303;-57
2023/01/24 09:38:39;;;;;;;;;;;;;;;;;;5078878;28;19920;-57
2023/01/24 09:41:04;;;;;;;;;;;;;;;;;;5076993;28;19925;-58
2023/01/24 09:43:30;;;;;;;;;;;;;;;;;;5077934;28;20015;-57
2023/01/24 09:45:56;;;;;;;;;;;;;;;;;;5079271;28;20008;-56
2023/01/24 09:48:22;;;;;;;;;;;;;;;;;;5070560;28;19927;-57
2023/01/24 09:50:48;;;;;;;;;;;;;;;;;;5085187;28;19920;-57
2023/01/24 09:53:14;;;;;;;;;;;;;;;;;;5075027;28;20289;-57
2023/01/24 09:55:40;;;;;;;;;;;;;;;;;;5083862;28;20306;-57
2023/01/24 09:58:06;;;;;;;;;;;;;;;;;;5072501;28;20019;-59
2023/01/24 10:00:32;;;;;;;;;;;;;;;;;;5068710;28;19927;-57
2023/01/24 10:02:58;;;;;;;;;;;;;;;;;;5077956;28;19928;-58
2023/01/24 10:05:26;;;;;;;;;;;;;;;;;;5080731;28;19928;-58
2023/01/24 10:07:52;;;;;;;;;;;;;;;;;;5076760;28;20297;-58
2023/01/24 10:10:18;;;;;;;;;;;;;;;;;;5074318;28;19920;-58
2023/01/24 10:12:44;;;;;;;;;;;;;;;;;;5074364;28;19924;-60
2023/01/24 10:15:10;;;;;;;;;;;;;;;;;;5065786;28;19928;-58
2023/01/24 10:17:36;;;;;;;;;;;;;;;;;;5076857;28;19927;-60
2023/01/24 10:20:03;;;;;;;;;;;;;;;;;;5070447;28;19920;-58
2023/01/24 10:22:29;;;;;;;;;;;;;;;;;;5067720;28;20386;-59
2023/01/24 10:24:55;;;;;;;;;;;;;;;;;;5067220;28;19920;-59
2023/01/24 10:27:21;;;;;;;;;;;;;;;;;;5064743;28;19920;-58
2023/01/24 10:29:47;;;;;;;;;;;;;;;;;;5073229;28;19973;-58
2023/01/24 10:32:13;;;;;;;;;;;;;;;;;;5073513;28;20330;-57
2023/01/24 10:34:40;;;;;;;;;;;;;;;;;;5070230;28;19960;-58
2023/01/24 10:37:06;;;;;;;;;;;;;;;;;;5083420;28;20389;-60
2023/01/24 10:39:32;;;;;;;;;;;;;;;;;;5072252;28;20003;-58
2023/01/24 10:41:58;;;;;;;;;;;;;;;;;;5083797;28;19928;-60
2023/01/24 10:44:24;;;;;;;;;;;;;;;;;;5068447;28;19921;-57
2023/01/24 10:46:50;;;;;;;;;;;;;;;;;;5066743;28;19959;-57
2023/01/24 10:49:16;;;;;;;;;;;;;;;;;;5076801;28;20288;-57
2023/01/24 10:51:42;;;;;;;;;;;;;;;;;;5080328;28;19932;-57
2023/01/24 10:54:08;;;;;;;;;;;;;;;;;;5077026;28;19931;-56
2023/01/24 10:56:34;;;;;;;;;;;;;;;;;;5078286;28;19924;-59
2023/01/24 10:59:00;;;;;;;;;;;;;;;;;;5073600;28;19978;-57
2023/01/24 11:01:42;;;;;;;7.20;6.00;;;;;;;;;;5068403;28;19962;-58
2023/01/24 11:04:21;;;;;;;7.80;5.55;;;;;;;;;;5070626;28;20509;-57
2023/01/24 11:06:49;;;;;;;6.28;5.43;;;;;;;;;;5074484;28;20049;-59
2023/01/24 11:09:24;;;;;;;6.68;5.72;;;;;;;;;;5074447;28;20097;-56
2023/01/24 11:11:51;;;;;;;5.97;5.15;;;;;;;;;;5078027;28;20089;-59
2023/01/24 11:14:17;;;;;;;;;;;;;;;;;;5087233;28;20212;-57
2023/01/24 11:16:43;;;;;;;;;;;;;;;;;;5088445;28;20392;-59
2023/01/24 11:19:09;;;;;;;;;;;;;;;;;;5086201;28;19920;-57
2023/01/24 11:21:35;;;;;;;;;;;;;;;;;;5086732;28;19920;-57
2023/01/24 11:24:01;;;;;;;;;;;;;;;;;;5086623;28;20283;-57
2023/01/24 11:26:27;;;;;;;;;;;;;;;;;;5086089;28;19924;-59
2023/01/24 11:28:53;;;;;;;;;;;;;;;;;;5085578;28;19942;-59
2023/01/24 11:31:19;;;;;;;;;;;;;;;;;;5086421;28;19920;-57
2023/01/24 11:33:45;;;;;;;;;;;;;;;;;;5087545;28;19977;-57
2023/01/24 11:36:11;;;;;;;;;;;;;;;;;;5087708;28;19927;-59
2023/01/24 11:38:36;;;;;;;;;;;;;;;;;;5088489;28;19920;-57
2023/01/24 11:41:02;;;;;;;;;;;;;;;;;;5087376;28;19920;-57
2023/01/24 11:43:28;;;;;;;;;;;;;;;;;;5087782;28;19923;-56
2023/01/24 11:45:54;;;;;;;;;;;;;;;;;;5087955;28;19920;-57
2023/01/24 11:48:20;;;;;;;;;;;;;;;;;;5086802;28;19923;-57
2023/01/24 11:50:46;;;;;;;;;;;;;;;;;;5088078;28;19919;-59
2023/01/24 11:53:12;;;;;;;;;;;;;;;;;;5087459;28;20058;-57
2023/01/24 11:55:38;;;;;;;;;;;;;;;;;;5087612;28;20039;-57
2023/01/24 11:58:04;;;;;;;;;;;;;;;;;;5088604;28;19920;-57
2023/01/24 12:00:31;;;;;;;;;;;;;;;;;;5087316;28;19977;-57
2023/01/24 12:02:57;;;;;;;;;;;;;;;;;;5086927;28;19923;-57
2023/01/24 12:05:23;;;;;;;;;;;;;;;;;;5087325;28;19920;-57
2023/01/24 12:07:49;;;;;;;;;;;;;;;;;;5087626;28;19920;-57
2023/01/24 12:10:15;;;;;;;;;;;;;;;;;;5086602;28;19920;-57
2023/01/24 12:12:41;;;;;;;;;;;;;;;;;;5087231;28;19920;-57
2023/01/24 12:15:07;;;;;;;;;;;;;;;;;;5088285;28;20276;-59
2023/01/24 12:17:33;;;;;;;;;;;;;;;;;;5085928;28;19934;-57
2023/01/24 12:19:58;;;;;;;;;;;;;;;;;;5088136;28;19977;-56
2023/01/24 12:22:24;;;;;;;;;;;;;;;;;;5086272;28;19941;-57
2023/01/24 12:24:50;;;;;;;;;;;;;;;;;;5087090;28;20375;-57
2023/01/24 12:27:16;;;;;;;;;;;;;;;;;;5087234;28;19920;-57
2023/01/24 12:29:42;;;;;;;;;;;;;;;;;;5087654;28;19978;-57
2023/01/24 12:32:08;;;;;;;;;;;;;;;;;;5087032;28;19927;-57
2023/01/24 12:34:34;;;;;;;;;;;;;;;;;;5077857;28;19921;-57
2023/01/24 12:37:00;;;;;;;;;;;;;;;;;;5066145;28;19931;-57
2023/01/24 12:39:26;;;;;;;;;;;;;;;;;;5066668;28;19955;-57
2023/01/24 12:41:52;;;;;;;;;;;;;;;;;;5066779;28;20323;-57
2023/01/24 12:44:18;;;;;;;;;;;;;;;;;;5065612;28;19940;-58
2023/01/24 12:46:44;;;;;;;;;;;;;;;;;;5066980;28;19931;-58
2023/01/24 12:49:10;;;;;;;;;;;;;;;;;;5066543;28;20277;-57
2023/01/24 12:51:35;;;;;;;;;;;;;;;;;;5065993;28;19920;-57
2023/01/24 12:54:01;;;;;;;;;;;;;;;;;;5066832;28;19920;-59
2023/01/24 12:56:27;;;;;;;;;;;;;;;;;;5066914;28;20443;-57
2023/01/24 12:58:55;;;;;;;;;;;;;;;;;;5066145;28;20390;-57
2023/01/24 13:01:21;;;;;;;;;;;;;;;;;;5066754;28;19921;-59
2023/01/24 13:03:47;;;;;;;;;;;;;;;;;;5067216;28;19935;-59
2023/01/24 13:06:13;;;;;;;;;;;;;;;;;;5064734;28;19920;-57
2023/01/24 13:08:39;;;;;;;;;;;;;;;;;;5067554;28;19920;-60
2023/01/24 13:11:07;;;;;;;;;;;;;;;;;;5067453;28;19932;-57
2023/01/24 13:13:33;;;;;;;;;;;;;;;;;;5065938;28;19921;-57
2023/01/24 13:15:58;;;;;;;;;;;;;;;;;;5064273;28;20395;-57
2023/01/24 13:18:24;;;;;;;;;;;;;;;;;;5066051;28;19939;-58
2023/01/24 13:20:51;;;;;;;;;;;;;;;;;;5065747;28;19974;-57
2023/01/24 13:23:17;;;;;;;;;;;;;;;;;;5066131;28;19926;-58
2023/01/24 13:25:43;;;;;;;;;;;;;;;;;;5066225;28;20408;-57
2023/01/24 13:28:09;;;;;;;;;;;;;;;;;;5065471;28;19927;-56
2023/01/24 13:30:35;;;;;;;;;;;;;;;;;;5066330;28;20007;-56
2023/01/24 13:33:02;;;;;;;;;;;;;;;;;;5065879;28;19953;-57
2023/01/24 13:35:28;;;;;;;;;;;;;;;;;;5065183;28;20342;-56
2023/01/24 13:37:54;;;;;;;;;;;;;;;;;;5066088;28;20034;-56
2023/01/24 13:40:20;;;;;;;;;;;;;;;;;;5064189;28;19920;-59
2023/01/24 13:42:45;;;;;;;;;;;;;;;;;;5063499;28;19920;-57
2023/01/24 13:45:11;;;;;;;;;;;;;;;;;;5066177;28;19924;-57
2023/01/24 13:47:37;;;;;;;;;;;;;;;;;;5065663;28;20293;-57
2023/01/24 13:50:06;;;;;;;;;;;;;;;;;;5066301;28;19920;-57
2023/01/24 13:52:32;;;;;;;;;;;;;;;;;;5065713;28;20053;-56
2023/01/24 13:54:58;;;;;;;;;;;;;;;;;;5065222;28;20019;-57
2023/01/24 13:57:24;;;;;;;;;;;;;;;;;;5065613;28;20014;-57
2023/01/24 13:59:50;;;;;;;;;;;;;;;;;;5066171;28;20428;-57
2023/01/24 14:02:15;;;;;;;;;;;;;;;;;;5066512;28;19927;-57
2023/01/24 14:04:41;;;;;;;;;;;;;;;;;;5069751;28;19927;-59
2023/01/24 14:07:07;;;;;;;;;;;;;;;;;;5070908;28;19925;-57
2023/01/24 14:09:33;;;;;;;;;;;;;;;;;;5069923;28;19920;-57
2023/01/24 14:12:04;;;;;;;;;;;;;;;;;;5070018;28;19924;-58
2023/01/24 14:14:30;;;;;;;;;;;;;;;;;;5069750;28;20015;-57
2023/01/24 14:16:56;;;;;;;;;;;;;;;;;;5069591;28;19995;-57
2023/01/24 14:19:22;;;;;;;;;;;;;;;;;;5069587;28;19974;-57
2023/01/24 14:21:48;;;;;;;;;;;;;;;;;;5070201;28;19921;-57
2023/01/24 14:24:14;;;;;;;;;;;;;;;;;;5068646;28;20300;-57
2023/01/24 14:26:40;;;;;;;;;;;;;;;;;;5068454;28;20386;-57
2023/01/24 14:29:06;;;;;;;;;;;;;;;;;;5070409;28;19920;-57
2023/01/24 14:31:32;;;;;;;;;;;;;;;;;;5068903;28;19920;-59
2023/01/24 14:33:58;;;;;;;;;;;;;;;;;;5070212;28;20341;-57
2023/01/24 14:36:24;;;;;;;;;;;;;;;;;;5069395;28;20352;-57
2023/01/24 14:38:50;;;;;;;;;;;;;;;;;;5068726;28;20015;-59
2023/01/24 14:41:15;;;;;;;;;;;;;;;;;;5069450;28;20020;-57
2023/01/24 14:43:41;;;;;;;;;;;;;;;;;;5068871;28;19924;-57
2023/01/24 14:46:07;;;;;;;;;;;;;;;;;;5069957;28;19963;-57
2023/01/24 14:48:33;;;;;;;;;;;;;;;;;;5069706;28;19927;-59
2023/01/24 14:50:59;;;;;;;;;;;;;;;;;;5068671;28;20310;-57
2023/01/24 14:53:25;;;;;;;;;;;;;;;;;;5069032;28;20296;-56
2023/01/24 14:55:51;;;;;;;;;;;;;;;;;;5069604;28;19925;-57
2023/01/24 14:58:17;;;;;;;;;;;;;;;;;;5068341;28;19920;-57
2023/01/24 15:00:43;;;;;;;;;;;;;;;;;;5069828;28;19921;-57
2023/01/24 15:03:09;;;;;;;;;;;;;;;;;;5069289;28;19994;-57
2023/01/24 15:05:38;;;;;;;;;;;;;;;;;;5069024;28;19920;-57
2023/01/24 15:08:04;;;;;;;;;;;;;;;;;;5079769;28;19920;-57
2023/01/24 15:10:30;;;;;;;;;;;;;;;;;;5076332;28;19931;-57
2023/01/24 15:12:56;;;;;;;;;;;;;;;;;;5078142;28;19924;-57
2023/01/24 15:15:21;;;;;;;;;;;;;;;;;;5072603;28;19920;-57
2023/01/24 15:17:47;;;;;;;;;;;;;;;;;;5075129;28;19930;-57
2023/01/24 15:20:13;;;;;;;;;;;;;;;;;;5073134;28;19920;-58
2023/01/24 15:22:39;;;;;;;;;;;;;;;;;;5069081;28;19927;-57
2023/01/24 15:25:05;;;;;;;;;;;;;;;;;;5069271;28;19920;-59
2023/01/24 15:27:31;;;;;;;;;;;;;;;;;;5070437;28;20279;-57
2023/01/24 15:29:57;;;;;;;;;;;;;;;;;;5077267;28;19925;-57
2023/01/24 15:32:23;;;;;;;;;;;;;;;;;;5074790;28;19955;-58
2023/01/24 15:34:49;;;;;;;;;;;;;;;;;;5076622;28;19919;-58
2023/01/24 15:37:15;;;;;;;;;;;;;;;;;;5071664;28;19927;-58
2023/01/24 15:39:40;;;;;;;;;;;;;;;;;;5082098;28;20378;-58
2023/01/24 15:44:51;;;;;;;;;;;;;;;;;;5074803;28;20348;-57
2023/01/24 15:51:05;;;;;;;;;;;;;;;;;;5078715;28;20436;-58
2023/01/24 15:52:47;;;;;;;;;;;;;;;;;;5074379;28;19924;-59
2023/01/24 15:55:13;;;;;;;;;;;;;;;;;;5086057;28;19920;-57
2023/01/24 15:57:39;;;;;;;;;;;;;;;;;;5086259;28;19924;-57
2023/01/24 16:00:05;;;;;;;;;;;;;;;;;;5076302;28;19925;-58
2023/01/24 16:02:31;;;;;;;;;;;;;;;;;;5074618;28;20327;-57
2023/01/24 16:04:57;;;;;;;;;;;;;;;;;;5078932;28;19924;-57
2023/01/24 16:07:23;;;;;;;;;;;;;;;;;;5074007;28;20372;-59
2023/01/24 16:09:49;;;;;;;;;;;;;;;;;;5080345;28;19927;-60
2023/01/24 16:12:15;;;;;;;;;;;;;;;;;;5078589;28;19974;-57
2023/01/24 16:14:41;;;;;;;;;;;;;;;;;;5084370;28;19920;-57
2023/01/24 16:17:07;;;;;;;;;;;;;;;;;;5083444;28;19919;-59
2023/01/24 16:19:33;;;;;;;;;;;;;;;;;;5078237;28;19970;-59
2023/01/24 16:21:58;;;;;;;;;;;;;;;;;;5082432;28;19974;-58
2023/01/24 16:24:24;;;;;;;;;;;;;;;;;;5067045;28;19920;-57
2023/01/24 16:26:50;;;;;;;;;;;;;;;;;;5073376;28;19926;-57
2023/01/24 16:29:16;;;;;;;;;;;;;;;;;;5074499;28;19927;-59
2023/01/24 16:31:42;;;;;;;;;;;;;;;;;;5081138;28;19967;-57
2023/01/24 16:34:08;;;;;;;;;;;;;;;;;;5086200;28;20401;-58
2023/01/24 16:36:34;;;;;;;;;;;;;;;;;;5074657;28;19943;-60
2023/01/24 16:39:00;;;;;;;;;;;;;;;;;;5079859;28;19974;-58
2023/01/24 16:41:26;;;;;;;;;;;;;;;;;;5085605;28;19920;-58
2023/01/24 16:43:52;;;;;;;;;;;;;;;;;;5085125;28;19920;-59
2023/01/24 16:46:18;;;;;;;;;;;;;;;;;;5078956;28;19923;-58
2023/01/24 16:48:44;;;;;;;;;;;;;;;;;;5085804;28;19924;-60
2023/01/24 16:51:09;;;;;;;;;;;;;;;;;;5075408;28;20226;-57
2023/01/24 16:53:35;;;;;;;;;;;;;;;;;;5080062;28;20117;-58
2023/01/24 16:56:01;;;;;;;;;;;;;;;;;;5076872;28;20450;-58
2023/01/24 16:58:27;;;;;;;;;;;;;;;;;;5081934;28;20435;-58
2023/01/24 17:00:53;;;;;;;;;;;;;;;;;;5084250;28;19919;-60
2023/01/24 17:03:19;;;;;;;;;;;;;;;;;;5081330;28;19924;-58
2023/01/24 17:05:45;;;;;;;;;;;;;;;;;;5078899;28;19920;-57
2023/01/24 17:08:11;;;;;;;;;;;;;;;;;;5078176;28;20010;-59
2023/01/24 17:10:37;;;;;;;;;;;;;;;;;;5082366;28;19920;-57
2023/01/24 17:13:05;;;;;;;15.68;12.60;;;;;;;;;;5072586;28;20310;-57
2023/01/24 17:15:31;;;;;;;12.98;10.52;;;;;;;;;;5083958;28;20451;-57